sensor_id;sensor_type;location;lat;lon;timestamp;temperature;humidity
16064;DHT22;8136;53.172;8.256;2022-08-21T00:00:21;17.00;99.90
16064;DHT22;8136;53.172;8.256;2022-08-21T00:02:51;17.00;99.90
16064;DHT22;8136;53.172;8.256;2022-08-21T00:05:19;16.90;99.90
16064;DHT22;8136;53.172;8.256;2022-08-21T00:07:46;16.90;99.90
16064;DHT22;8136;53.172;8.256;2022-08-21T00:10:13;16.90;99.90
16064;DHT22;8136;53.172;8.256;2022-08-21T00:12:43;16.90;99.90
16064;DHT22;8136;53.172;8.256;2022-08-21T00:15:12;16.80;99.90
16064;DHT22;8136;53.172;8.256;2022-08-21T00:17:39;16.80;99.90
16064;DHT22;8136;53.172;8.256;2022-08-21T00:20:09;16.80;99.90
16064;DHT22;8136;53.172;8.256;2022-08-21T00:22:36;16.80;99.90
16064;DHT22;8136;53.172;8.256;2022-08-21T00:25:04;16.70;99.90
16064;DHT22;8136;53.172;8.256;2022-08-21T00:27:31;16.70;99.90
16064;DHT22;8136;53.172;8.256;2022-08-21T00:30:00;16.70;99.90
16064;DHT22;8136;53.172;8.256;2022-08-21T00:32:27;16.70;99.90
16064;DHT22;8136;53.172;8.256;2022-08-21T00:34:55;16.60;99.90
16064;DHT22;8136;53.172;8.256;2022-08-21T00:37:22;16.70;99.90
16064;DHT22;8136;53.172;8.256;2022-08-21T00:39:49;16.60;99.90
16064;DHT22;8136;53.172;8.256;2022-08-21T00:42:17;16.60;99.90
16064;DHT22;8136;53.172;8.256;2022-08-21T00:44:47;16.60;99.90
16064;DHT22;8136;53.172;8.256;2022-08-21T00:47:16;16.60;99.90
16064;DHT22;8136;53.172;8.256;2022-08-21T00:49:43;16.60;99.90
16064;DHT22;8136;53.172;8.256;2022-08-21T00:52:14;16.60;99.90
16064;DHT22;8136;53.172;8.256;2022-08-21T00:54:42;16.60;99.90
16064;DHT22;8136;53.172;8.256;2022-08-21T00:57:13;16.60;99.90
16064;DHT22;8136;53.172;8.256;2022-08-21T00:59:43;16.60;99.90
16064;DHT22;8136;53.172;8.256;2022-08-21T01:02:10;16.50;99.90
16064;DHT22;8136;53.172;8.256;2022-08-21T01:04:38;16.60;99.90
16064;DHT22;8136;53.172;8.256;2022-08-21T01:07:06;16.50;99.90
16064;DHT22;8136;53.172;8.256;2022-08-21T01:09:33;16.50;99.90
16064;DHT22;8136;53.172;8.256;2022-08-21T01:12:00;16.50;99.90
16064;DHT22;8136;53.172;8.256;2022-08-21T01:14:27;16.50;99.90
16064;DHT22;8136;53.172;8.256;2022-08-21T01:16:55;16.40;99.90
16064;DHT22;8136;53.172;8.256;2022-08-21T01:19:23;16.40;99.90
16064;DHT22;8136;53.172;8.256;2022-08-21T01:21:52;16.40;99.90
16064;DHT22;8136;53.172;8.256;2022-08-21T01:24:19;16.30;99.90
16064;DHT22;8136;53.172;8.256;2022-08-21T01:26:48;16.20;99.90
16064;DHT22;8136;53.172;8.256;2022-08-21T01:29:21;16.30;99.90
16064;DHT22;8136;53.172;8.256;2022-08-21T01:31:49;16.20;99.90
16064;DHT22;8136;53.172;8.256;2022-08-21T01:34:16;16.20;99.90
16064;DHT22;8136;53.172;8.256;2022-08-21T01:36:44;16.20;99.90
16064;DHT22;8136;53.172;8.256;2022-08-21T01:39:14;16.20;99.90
16064;DHT22;8136;53.172;8.256;2022-08-21T01:41:41;16.20;99.90
16064;DHT22;8136;53.172;8.256;2022-08-21T01:44:08;16.10;99.90
16064;DHT22;8136;53.172;8.256;2022-08-21T01:46:34;16.20;99.90
16064;DHT22;8136;53.172;8.256;2022-08-21T01:49:02;16.20;99.90
16064;DHT22;8136;53.172;8.256;2022-08-21T01:51:29;16.10;99.90
16064;DHT22;8136;53.172;8.256;2022-08-21T01:53:56;16.10;99.90
16064;DHT22;8136;53.172;8.256;2022-08-21T01:56:24;16.20;99.90
16064;DHT22;8136;53.172;8.256;2022-08-21T01:58:53;16.10;99.90
16064;DHT22;8136;53.172;8.256;2022-08-21T02:01:19;16.10;99.90
16064;DHT22;8136;53.172;8.256;2022-08-21T02:03:46;16.10;99.90
16064;DHT22;8136;53.172;8.256;2022-08-21T02:06:14;16.00;99.90
16064;DHT22;8136;53.172;8.256;2022-08-21T02:08:43;16.10;99.90
16064;DHT22;8136;53.172;8.256;2022-08-21T02:11:10;16.00;99.90
16064;DHT22;8136;53.172;8.256;2022-08-21T02:13:38;16.20;99.90
16064;DHT22;8136;53.172;8.256;2022-08-21T02:16:06;16.20;99.90
16064;DHT22;8136;53.172;8.256;2022-08-21T02:18:33;16.10;99.90
16064;DHT22;8136;53.172;8.256;2022-08-21T02:21:00;16.20;99.90
16064;DHT22;8136;53.172;8.256;2022-08-21T02:23:27;16.20;99.90
16064;DHT22;8136;53.172;8.256;2022-08-21T02:25:53;16.20;99.90
16064;DHT22;8136;53.172;8.256;2022-08-21T02:28:20;16.20;99.90
16064;DHT22;8136;53.172;8.256;2022-08-21T02:30:49;16.20;99.90
16064;DHT22;8136;53.172;8.256;2022-08-21T02:33:17;16.30;99.90
16064;DHT22;8136;53.172;8.256;2022-08-21T02:35:46;16.20;99.90
16064;DHT22;8136;53.172;8.256;2022-08-21T02:38:15;16.20;99.90
16064;DHT22;8136;53.172;8.256;2022-08-21T02:40:44;16.20;99.90
16064;DHT22;8136;53.172;8.256;2022-08-21T02:43:11;16.20;99.90
16064;DHT22;8136;53.172;8.256;2022-08-21T02:45:39;16.10;99.90
16064;DHT22;8136;53.172;8.256;2022-08-21T02:48:09;16.10;99.90
16064;DHT22;8136;53.172;8.256;2022-08-21T02:50:40;16.00;99.90
16064;DHT22;8136;53.172;8.256;2022-08-21T02:53:10;16.00;99.90
16064;DHT22;8136;53.172;8.256;2022-08-21T02:55:37;16.00;99.90
16064;DHT22;8136;53.172;8.256;2022-08-21T02:58:06;15.90;99.90
16064;DHT22;8136;53.172;8.256;2022-08-21T03:00:35;16.00;99.90
16064;DHT22;8136;53.172;8.256;2022-08-21T03:03:04;15.90;99.90
16064;DHT22;8136;53.172;8.256;2022-08-21T03:05:35;15.80;99.90
16064;DHT22;8136;53.172;8.256;2022-08-21T03:08:04;15.80;99.90
16064;DHT22;8136;53.172;8.256;2022-08-21T03:10:32;15.90;99.90
16064;DHT22;8136;53.172;8.256;2022-08-21T03:12:59;15.80;99.90
16064;DHT22;8136;53.172;8.256;2022-08-21T03:15:25;15.70;99.90
16064;DHT22;8136;53.172;8.256;2022-08-21T03:17:52;15.70;99.90
16064;DHT22;8136;53.172;8.256;2022-08-21T03:20:22;15.60;99.90
16064;DHT22;8136;53.172;8.256;2022-08-21T03:22:52;15.60;99.90
16064;DHT22;8136;53.172;8.256;2022-08-21T03:25:19;15.50;99.90
16064;DHT22;8136;53.172;8.256;2022-08-21T03:27:46;15.50;99.90
16064;DHT22;8136;53.172;8.256;2022-08-21T03:30:14;15.50;99.90
16064;DHT22;8136;53.172;8.256;2022-08-21T03:32:41;15.40;99.90
16064;DHT22;8136;53.172;8.256;2022-08-21T03:35:08;15.50;99.90
16064;DHT22;8136;53.172;8.256;2022-08-21T03:37:35;15.50;99.90
16064;DHT22;8136;53.172;8.256;2022-08-21T03:40:05;15.50;99.90
16064;DHT22;8136;53.172;8.256;2022-08-21T03:42:32;15.40;99.90
16064;DHT22;8136;53.172;8.256;2022-08-21T03:45:00;15.40;99.90
16064;DHT22;8136;53.172;8.256;2022-08-21T03:47:27;15.50;99.90
16064;DHT22;8136;53.172;8.256;2022-08-21T03:49:54;15.50;99.90
16064;DHT22;8136;53.172;8.256;2022-08-21T03:52:21;15.50;99.90
16064;DHT22;8136;53.172;8.256;2022-08-21T03:54:49;15.40;99.90
16064;DHT22;8136;53.172;8.256;2022-08-21T03:57:17;15.40;99.90
16064;DHT22;8136;53.172;8.256;2022-08-21T03:59:44;15.40;99.90
16064;DHT22;8136;53.172;8.256;2022-08-21T04:02:13;15.40;99.90
16064;DHT22;8136;53.172;8.256;2022-08-21T04:04:43;15.50;99.90
16064;DHT22;8136;53.172;8.256;2022-08-21T04:07:09;15.60;99.90
16064;DHT22;8136;53.172;8.256;2022-08-21T04:09:36;15.50;99.90
16064;DHT22;8136;53.172;8.256;2022-08-21T04:12:04;15.60;99.90
16064;DHT22;8136;53.172;8.256;2022-08-21T04:14:32;15.70;99.90
16064;DHT22;8136;53.172;8.256;2022-08-21T04:16:59;15.60;99.90
16064;DHT22;8136;53.172;8.256;2022-08-21T04:19:26;15.50;99.90
16064;DHT22;8136;53.172;8.256;2022-08-21T04:21:52;15.50;99.90
16064;DHT22;8136;53.172;8.256;2022-08-21T04:24:19;15.40;99.90
16064;DHT22;8136;53.172;8.256;2022-08-21T04:26:46;15.50;99.90
16064;DHT22;8136;53.172;8.256;2022-08-21T04:29:13;15.50;99.90
16064;DHT22;8136;53.172;8.256;2022-08-21T04:31:41;15.50;99.90
16064;DHT22;8136;53.172;8.256;2022-08-21T04:34:09;15.50;99.90
16064;DHT22;8136;53.172;8.256;2022-08-21T04:36:36;15.60;99.90
16064;DHT22;8136;53.172;8.256;2022-08-21T04:39:02;15.50;99.90
16064;DHT22;8136;53.172;8.256;2022-08-21T04:41:29;15.60;99.90
16064;DHT22;8136;53.172;8.256;2022-08-21T04:43:56;15.50;99.90
16064;DHT22;8136;53.172;8.256;2022-08-21T04:46:23;15.50;99.90
16064;DHT22;8136;53.172;8.256;2022-08-21T04:48:51;15.50;99.90
16064;DHT22;8136;53.172;8.256;2022-08-21T04:51:21;15.40;99.90
16064;DHT22;8136;53.172;8.256;2022-08-21T04:53:52;15.50;99.90
16064;DHT22;8136;53.172;8.256;2022-08-21T04:56:22;15.50;99.90
16064;DHT22;8136;53.172;8.256;2022-08-21T04:58:50;15.50;99.90
16064;DHT22;8136;53.172;8.256;2022-08-21T05:01:21;15.50;99.90
16064;DHT22;8136;53.172;8.256;2022-08-21T05:03:52;15.50;99.90
16064;DHT22;8136;53.172;8.256;2022-08-21T05:06:22;15.50;99.90
16064;DHT22;8136;53.172;8.256;2022-08-21T05:08:51;15.60;99.90
16064;DHT22;8136;53.172;8.256;2022-08-21T05:11:19;15.60;99.90
16064;DHT22;8136;53.172;8.256;2022-08-21T05:13:47;15.60;99.90
16064;DHT22;8136;53.172;8.256;2022-08-21T05:16:14;15.70;99.90
16064;DHT22;8136;53.172;8.256;2022-08-21T05:18:41;15.60;99.90
16064;DHT22;8136;53.172;8.256;2022-08-21T05:21:09;15.60;99.90
16064;DHT22;8136;53.172;8.256;2022-08-21T05:23:36;15.60;99.90
16064;DHT22;8136;53.172;8.256;2022-08-21T05:26:03;15.60;99.90
16064;DHT22;8136;53.172;8.256;2022-08-21T05:28:30;15.60;99.90
16064;DHT22;8136;53.172;8.256;2022-08-21T05:30:57;15.60;99.90
16064;DHT22;8136;53.172;8.256;2022-08-21T05:33:24;15.70;99.90
16064;DHT22;8136;53.172;8.256;2022-08-21T05:35:52;15.70;99.90
16064;DHT22;8136;53.172;8.256;2022-08-21T05:38:22;15.80;99.90
16064;DHT22;8136;53.172;8.256;2022-08-21T05:40:49;15.90;99.90
16064;DHT22;8136;53.172;8.256;2022-08-21T05:43:16;15.90;99.90
16064;DHT22;8136;53.172;8.256;2022-08-21T05:45:43;16.00;99.90
16064;DHT22;8136;53.172;8.256;2022-08-21T05:48:13;16.10;99.90
16064;DHT22;8136;53.172;8.256;2022-08-21T05:50:41;16.20;99.90
16064;DHT22;8136;53.172;8.256;2022-08-21T05:53:08;16.20;99.90
16064;DHT22;8136;53.172;8.256;2022-08-21T05:55:37;16.30;99.90
16064;DHT22;8136;53.172;8.256;2022-08-21T05:58:04;16.30;99.90
16064;DHT22;8136;53.172;8.256;2022-08-21T06:00:31;16.30;99.90
16064;DHT22;8136;53.172;8.256;2022-08-21T06:02:59;16.30;99.90
16064;DHT22;8136;53.172;8.256;2022-08-21T06:05:26;16.50;99.90
16064;DHT22;8136;53.172;8.256;2022-08-21T06:07:53;16.70;99.90
16064;DHT22;8136;53.172;8.256;2022-08-21T06:10:20;16.70;99.90
16064;DHT22;8136;53.172;8.256;2022-08-21T06:12:52;16.80;99.90
16064;DHT22;8136;53.172;8.256;2022-08-21T06:15:19;16.90;99.90
16064;DHT22;8136;53.172;8.256;2022-08-21T06:17:46;16.90;99.90
16064;DHT22;8136;53.172;8.256;2022-08-21T06:20:13;17.00;99.90
16064;DHT22;8136;53.172;8.256;2022-08-21T06:22:40;17.10;99.90
16064;DHT22;8136;53.172;8.256;2022-08-21T06:25:07;17.20;99.90
16064;DHT22;8136;53.172;8.256;2022-08-21T06:27:34;17.30;99.90
16064;DHT22;8136;53.172;8.256;2022-08-21T06:30:03;17.40;99.90
16064;DHT22;8136;53.172;8.256;2022-08-21T06:32:30;17.50;99.90
16064;DHT22;8136;53.172;8.256;2022-08-21T06:34:57;17.60;99.90
16064;DHT22;8136;53.172;8.256;2022-08-21T06:37:24;17.70;99.90
16064;DHT22;8136;53.172;8.256;2022-08-21T06:39:51;17.70;99.90
16064;DHT22;8136;53.172;8.256;2022-08-21T06:42:18;17.80;99.90
16064;DHT22;8136;53.172;8.256;2022-08-21T06:44:46;17.80;99.90
16064;DHT22;8136;53.172;8.256;2022-08-21T06:47:15;17.90;99.90
16064;DHT22;8136;53.172;8.256;2022-08-21T06:49:42;18.00;99.90
16064;DHT22;8136;53.172;8.256;2022-08-21T06:52:10;18.10;99.90
16064;DHT22;8136;53.172;8.256;2022-08-21T06:54:37;18.20;99.90
16064;DHT22;8136;53.172;8.256;2022-08-21T06:57:05;18.30;99.90
16064;DHT22;8136;53.172;8.256;2022-08-21T06:59:35;18.40;99.90
16064;DHT22;8136;53.172;8.256;2022-08-21T07:02:03;18.50;99.90
16064;DHT22;8136;53.172;8.256;2022-08-21T07:04:31;18.60;99.90
16064;DHT22;8136;53.172;8.256;2022-08-21T07:06:58;18.70;99.90
16064;DHT22;8136;53.172;8.256;2022-08-21T07:09:24;18.80;99.90
16064;DHT22;8136;53.172;8.256;2022-08-21T07:15:16;18.90;99.90
16064;DHT22;8136;53.172;8.256;2022-08-21T07:17:43;19.00;99.90
16064;DHT22;8136;53.172;8.256;2022-08-21T07:20:11;19.10;99.90
16064;DHT22;8136;53.172;8.256;2022-08-21T07:22:40;19.20;99.90
16064;DHT22;8136;53.172;8.256;2022-08-21T07:25:08;19.20;99.90
16064;DHT22;8136;53.172;8.256;2022-08-21T07:27:34;19.30;99.90
16064;DHT22;8136;53.172;8.256;2022-08-21T07:30:01;19.30;99.90
16064;DHT22;8136;53.172;8.256;2022-08-21T07:32:28;19.40;99.90
16064;DHT22;8136;53.172;8.256;2022-08-21T07:34:55;19.50;99.90
16064;DHT22;8136;53.172;8.256;2022-08-21T07:37:23;19.50;99.90
16064;DHT22;8136;53.172;8.256;2022-08-21T07:39:50;19.60;99.90
16064;DHT22;8136;53.172;8.256;2022-08-21T07:42:17;19.60;99.90
16064;DHT22;8136;53.172;8.256;2022-08-21T07:44:44;19.70;99.90
16064;DHT22;8136;53.172;8.256;2022-08-21T07:47:11;19.90;99.90
16064;DHT22;8136;53.172;8.256;2022-08-21T07:49:37;19.90;99.90
16064;DHT22;8136;53.172;8.256;2022-08-21T07:52:05;20.00;99.90
16064;DHT22;8136;53.172;8.256;2022-08-21T07:54:33;20.10;99.90
16064;DHT22;8136;53.172;8.256;2022-08-21T07:57:00;20.20;99.90
16064;DHT22;8136;53.172;8.256;2022-08-21T07:59:27;20.20;99.90
16064;DHT22;8136;53.172;8.256;2022-08-21T08:01:54;20.30;99.90
16064;DHT22;8136;53.172;8.256;2022-08-21T08:04:21;20.30;99.90
16064;DHT22;8136;53.172;8.256;2022-08-21T08:06:48;20.40;99.90
16064;DHT22;8136;53.172;8.256;2022-08-21T08:09:20;20.40;99.90
16064;DHT22;8136;53.172;8.256;2022-08-21T08:11:57;20.40;99.90
16064;DHT22;8136;53.172;8.256;2022-08-21T08:14:26;20.40;99.90
16064;DHT22;8136;53.172;8.256;2022-08-21T08:16:55;20.50;99.90
16064;DHT22;8136;53.172;8.256;2022-08-21T08:19:23;20.60;99.90
16064;DHT22;8136;53.172;8.256;2022-08-21T08:21:56;20.70;99.90
16064;DHT22;8136;53.172;8.256;2022-08-21T08:24:38;20.70;99.90
16064;DHT22;8136;53.172;8.256;2022-08-21T08:27:07;20.80;99.90
16064;DHT22;8136;53.172;8.256;2022-08-21T08:29:37;20.90;99.90
16064;DHT22;8136;53.172;8.256;2022-08-21T08:32:08;21.00;99.90
16064;DHT22;8136;53.172;8.256;2022-08-21T08:34:40;21.10;99.90
16064;DHT22;8136;53.172;8.256;2022-08-21T08:37:09;21.10;99.90
16064;DHT22;8136;53.172;8.256;2022-08-21T08:39:37;21.10;99.90
16064;DHT22;8136;53.172;8.256;2022-08-21T08:42:27;21.10;99.90
16064;DHT22;8136;53.172;8.256;2022-08-21T08:44:58;21.20;99.90
16064;DHT22;8136;53.172;8.256;2022-08-21T08:47:27;21.10;99.90
16064;DHT22;8136;53.172;8.256;2022-08-21T08:50:06;21.00;99.90
16064;DHT22;8136;53.172;8.256;2022-08-21T08:52:41;21.00;99.90
16064;DHT22;8136;53.172;8.256;2022-08-21T08:55:19;21.10;99.90
16064;DHT22;8136;53.172;8.256;2022-08-21T08:58:02;21.30;99.90
16064;DHT22;8136;53.172;8.256;2022-08-21T09:00:31;21.40;99.90
16064;DHT22;8136;53.172;8.256;2022-08-21T09:03:23;21.60;99.90
16064;DHT22;8136;53.172;8.256;2022-08-21T09:07:15;21.70;99.90
16064;DHT22;8136;53.172;8.256;2022-08-21T09:09:18;21.60;99.90
16064;DHT22;8136;53.172;8.256;2022-08-21T09:11:52;21.60;99.90
16064;DHT22;8136;53.172;8.256;2022-08-21T09:14:41;21.70;99.90
16064;DHT22;8136;53.172;8.256;2022-08-21T09:17:19;21.90;99.90
16064;DHT22;8136;53.172;8.256;2022-08-21T09:20:07;22.10;99.90
16064;DHT22;8136;53.172;8.256;2022-08-21T09:22:52;22.10;99.90
16064;DHT22;8136;53.172;8.256;2022-08-21T09:25:26;22.20;99.90
16064;DHT22;8136;53.172;8.256;2022-08-21T09:27:54;22.20;99.90
16064;DHT22;8136;53.172;8.256;2022-08-21T09:33:39;22.40;99.90
16064;DHT22;8136;53.172;8.256;2022-08-21T09:36:06;22.50;99.90
16064;DHT22;8136;53.172;8.256;2022-08-21T09:38:35;22.30;99.90
16064;DHT22;8136;53.172;8.256;2022-08-21T09:41:05;22.30;99.90
16064;DHT22;8136;53.172;8.256;2022-08-21T09:43:33;22.10;99.90
16064;DHT22;8136;53.172;8.256;2022-08-21T09:46:09;22.20;99.90
16064;DHT22;8136;53.172;8.256;2022-08-21T09:58:45;22.20;99.90
16064;DHT22;8136;53.172;8.256;2022-08-21T10:01:15;22.30;99.90
16064;DHT22;8136;53.172;8.256;2022-08-21T10:03:42;22.40;99.90
16064;DHT22;8136;53.172;8.256;2022-08-21T10:06:10;22.50;99.90
16064;DHT22;8136;53.172;8.256;2022-08-21T10:08:46;22.70;99.90
16064;DHT22;8136;53.172;8.256;2022-08-21T10:11:23;22.90;99.90
16064;DHT22;8136;53.172;8.256;2022-08-21T10:14:01;23.00;99.90
16064;DHT22;8136;53.172;8.256;2022-08-21T10:16:52;22.70;99.90
16064;DHT22;8136;53.172;8.256;2022-08-21T10:19:35;22.60;99.90
16064;DHT22;8136;53.172;8.256;2022-08-21T10:22:15;22.70;99.90
16064;DHT22;8136;53.172;8.256;2022-08-21T10:24:52;22.80;99.90
16064;DHT22;8136;53.172;8.256;2022-08-21T10:27:30;23.00;99.90
16064;DHT22;8136;53.172;8.256;2022-08-21T10:30:05;23.20;99.90
16064;DHT22;8136;53.172;8.256;2022-08-21T10:32:53;23.20;99.90
16064;DHT22;8136;53.172;8.256;2022-08-21T10:35:26;23.20;99.90
16064;DHT22;8136;53.172;8.256;2022-08-21T10:38:17;23.20;99.90
16064;DHT22;8136;53.172;8.256;2022-08-21T10:40:56;23.30;99.90
16064;DHT22;8136;53.172;8.256;2022-08-21T10:47:15;23.20;99.90
16064;DHT22;8136;53.172;8.256;2022-08-21T10:49:51;23.40;99.90
16064;DHT22;8136;53.172;8.256;2022-08-21T10:55:48;23.20;99.90
16064;DHT22;8136;53.172;8.256;2022-08-21T10:58:23;23.10;99.90
16064;DHT22;8136;53.172;8.256;2022-08-21T11:00:55;23.00;99.90
16064;DHT22;8136;53.172;8.256;2022-08-21T11:03:29;23.10;99.90
16064;DHT22;8136;53.172;8.256;2022-08-21T11:06:04;23.30;99.90
16064;DHT22;8136;53.172;8.256;2022-08-21T11:08:38;23.50;99.90
16064;DHT22;8136;53.172;8.256;2022-08-21T11:11:10;23.50;99.90
16064;DHT22;8136;53.172;8.256;2022-08-21T11:13:41;23.50;99.90
16064;DHT22;8136;53.172;8.256;2022-08-21T11:16:15;23.60;99.90
16064;DHT22;8136;53.172;8.256;2022-08-21T11:18:47;23.60;99.90
16064;DHT22;8136;53.172;8.256;2022-08-21T11:21:27;23.80;99.90
16064;DHT22;8136;53.172;8.256;2022-08-21T11:24:02;24.00;99.90
16064;DHT22;8136;53.172;8.256;2022-08-21T11:26:34;24.10;99.90
16064;DHT22;8136;53.172;8.256;2022-08-21T11:29:09;24.20;99.90
16064;DHT22;8136;53.172;8.256;2022-08-21T11:31:47;24.20;99.90
16064;DHT22;8136;53.172;8.256;2022-08-21T11:34:31;24.20;99.90
16064;DHT22;8136;53.172;8.256;2022-08-21T11:37:03;24.30;99.90
16064;DHT22;8136;53.172;8.256;2022-08-21T11:39:38;24.30;99.90
16064;DHT22;8136;53.172;8.256;2022-08-21T11:42:15;24.40;99.90
16064;DHT22;8136;53.172;8.256;2022-08-21T11:44:50;24.40;99.90
16064;DHT22;8136;53.172;8.256;2022-08-21T11:47:28;24.50;99.90
16064;DHT22;8136;53.172;8.256;2022-08-21T11:50:12;24.50;99.90
16064;DHT22;8136;53.172;8.256;2022-08-21T11:52:44;24.60;99.90
16064;DHT22;8136;53.172;8.256;2022-08-21T11:55:16;24.80;99.90
16064;DHT22;8136;53.172;8.256;2022-08-21T11:57:50;24.80;99.90
16064;DHT22;8136;53.172;8.256;2022-08-21T12:00:22;24.80;99.90
16064;DHT22;8136;53.172;8.256;2022-08-21T12:02:54;24.80;99.90
16064;DHT22;8136;53.172;8.256;2022-08-21T12:05:30;25.00;99.90
16064;DHT22;8136;53.172;8.256;2022-08-21T12:08:05;25.20;99.90
16064;DHT22;8136;53.172;8.256;2022-08-21T12:10:35;25.20;99.90
16064;DHT22;8136;53.172;8.256;2022-08-21T12:13:09;25.50;99.90
16064;DHT22;8136;53.172;8.256;2022-08-21T12:15:37;25.60;99.90
16064;DHT22;8136;53.172;8.256;2022-08-21T12:18:06;25.60;99.90
16064;DHT22;8136;53.172;8.256;2022-08-21T12:21:02;25.80;99.90
16064;DHT22;8136;53.172;8.256;2022-08-21T12:23:32;25.90;99.90
16064;DHT22;8136;53.172;8.256;2022-08-21T12:26:13;25.80;99.60
16064;DHT22;8136;53.172;8.256;2022-08-21T12:28:44;25.70;99.90
16064;DHT22;8136;53.172;8.256;2022-08-21T12:31:19;25.70;99.90
16064;DHT22;8136;53.172;8.256;2022-08-21T12:33:53;25.80;99.90
16064;DHT22;8136;53.172;8.256;2022-08-21T12:36:24;26.00;99.90
16064;DHT22;8136;53.172;8.256;2022-08-21T12:38:57;26.10;99.10
16064;DHT22;8136;53.172;8.256;2022-08-21T12:41:28;26.20;99.50
16064;DHT22;8136;53.172;8.256;2022-08-21T12:43:59;26.40;98.80
16064;DHT22;8136;53.172;8.256;2022-08-21T12:46:34;26.50;98.80
16064;DHT22;8136;53.172;8.256;2022-08-21T12:49:06;26.60;98.70
16064;DHT22;8136;53.172;8.256;2022-08-21T12:51:49;26.60;98.30
16064;DHT22;8136;53.172;8.256;2022-08-21T12:54:25;26.70;98.00
16064;DHT22;8136;53.172;8.256;2022-08-21T12:56:57;26.80;97.00
16064;DHT22;8136;53.172;8.256;2022-08-21T12:59:24;27.00;97.40
16064;DHT22;8136;53.172;8.256;2022-08-21T13:01:52;27.10;96.40
16064;DHT22;8136;53.172;8.256;2022-08-21T13:04:23;27.20;97.70
16064;DHT22;8136;53.172;8.256;2022-08-21T13:06:55;27.30;96.30
16064;DHT22;8136;53.172;8.256;2022-08-21T13:09:28;27.30;95.50
16064;DHT22;8136;53.172;8.256;2022-08-21T13:11:56;27.60;95.20
16064;DHT22;8136;53.172;8.256;2022-08-21T13:14:27;27.80;95.70
16064;DHT22;8136;53.172;8.256;2022-08-21T13:16:55;28.10;95.10
16064;DHT22;8136;53.172;8.256;2022-08-21T13:19:23;28.30;94.20
16064;DHT22;8136;53.172;8.256;2022-08-21T13:21:51;28.90;94.50
16064;DHT22;8136;53.172;8.256;2022-08-21T13:24:23;29.80;92.80
16064;DHT22;8136;53.172;8.256;2022-08-21T13:26:50;30.40;92.50
16064;DHT22;8136;53.172;8.256;2022-08-21T13:29:21;31.10;91.40
16064;DHT22;8136;53.172;8.256;2022-08-21T13:31:50;32.10;90.70
16064;DHT22;8136;53.172;8.256;2022-08-21T13:34:18;31.80;89.20
16064;DHT22;8136;53.172;8.256;2022-08-21T13:36:46;32.00;90.20
16064;DHT22;8136;53.172;8.256;2022-08-21T13:39:17;32.80;85.80
16064;DHT22;8136;53.172;8.256;2022-08-21T13:41:49;33.40;84.80
16064;DHT22;8136;53.172;8.256;2022-08-21T13:44:20;34.10;83.70
16064;DHT22;8136;53.172;8.256;2022-08-21T13:46:48;34.60;82.30
16064;DHT22;8136;53.172;8.256;2022-08-21T13:49:19;34.80;81.00
16064;DHT22;8136;53.172;8.256;2022-08-21T13:51:48;34.90;77.40
16064;DHT22;8136;53.172;8.256;2022-08-21T13:54:23;34.60;78.00
16064;DHT22;8136;53.172;8.256;2022-08-21T13:56:54;33.70;79.60
16064;DHT22;8136;53.172;8.256;2022-08-21T13:59:26;32.60;80.10
16064;DHT22;8136;53.172;8.256;2022-08-21T14:01:55;31.60;83.10
16064;DHT22;8136;53.172;8.256;2022-08-21T14:04:29;32.00;83.90
16064;DHT22;8136;53.172;8.256;2022-08-21T14:06:58;33.00;81.60
16064;DHT22;8136;53.172;8.256;2022-08-21T14:09:29;33.70;78.70
16064;DHT22;8136;53.172;8.256;2022-08-21T14:12:01;33.80;77.20
16064;DHT22;8136;53.172;8.256;2022-08-21T14:14:30;34.10;77.10
16064;DHT22;8136;53.172;8.256;2022-08-21T14:17:00;34.60;76.10
16064;DHT22;8136;53.172;8.256;2022-08-21T14:19:35;35.10;76.20
16064;DHT22;8136;53.172;8.256;2022-08-21T14:22:21;35.80;73.60
16064;DHT22;8136;53.172;8.256;2022-08-21T14:24:49;36.20;72.40
16064;DHT22;8136;53.172;8.256;2022-08-21T14:27:18;36.30;71.00
16064;DHT22;8136;53.172;8.256;2022-08-21T14:29:45;36.40;70.60
16064;DHT22;8136;53.172;8.256;2022-08-21T14:32:14;35.80;69.40
16064;DHT22;8136;53.172;8.256;2022-08-21T14:34:42;34.40;72.00
16064;DHT22;8136;53.172;8.256;2022-08-21T14:37:08;32.80;73.30
16064;DHT22;8136;53.172;8.256;2022-08-21T14:39:35;32.40;76.10
16064;DHT22;8136;53.172;8.256;2022-08-21T14:42:02;32.30;74.70
16064;DHT22;8136;53.172;8.256;2022-08-21T14:44:30;31.90;77.60
16064;DHT22;8136;53.172;8.256;2022-08-21T14:46:58;32.50;76.90
16064;DHT22;8136;53.172;8.256;2022-08-21T14:49:27;33.60;75.00
16064;DHT22;8136;53.172;8.256;2022-08-21T14:51:54;34.70;71.50
16064;DHT22;8136;53.172;8.256;2022-08-21T14:54:22;33.70;71.20
16064;DHT22;8136;53.172;8.256;2022-08-21T14:56:49;32.60;73.50
16064;DHT22;8136;53.172;8.256;2022-08-21T14:59:17;31.80;76.20
16064;DHT22;8136;53.172;8.256;2022-08-21T15:01:47;31.20;76.60
16064;DHT22;8136;53.172;8.256;2022-08-21T15:04:15;30.80;77.10
16064;DHT22;8136;53.172;8.256;2022-08-21T15:06:41;30.80;78.50
16064;DHT22;8136;53.172;8.256;2022-08-21T15:09:08;32.10;78.50
16064;DHT22;8136;53.172;8.256;2022-08-21T15:11:35;33.40;74.70
16064;DHT22;8136;53.172;8.256;2022-08-21T15:14:05;34.50;72.80
16064;DHT22;8136;53.172;8.256;2022-08-21T15:16:34;35.50;70.40
16064;DHT22;8136;53.172;8.256;2022-08-21T15:19:03;36.30;71.10
16064;DHT22;8136;53.172;8.256;2022-08-21T15:21:29;37.30;70.50
16064;DHT22;8136;53.172;8.256;2022-08-21T15:23:56;38.40;69.00
16064;DHT22;8136;53.172;8.256;2022-08-21T15:26:23;39.20;67.40
16064;DHT22;8136;53.172;8.256;2022-08-21T15:28:50;39.70;64.60
16064;DHT22;8136;53.172;8.256;2022-08-21T15:31:17;39.50;64.40
16064;DHT22;8136;53.172;8.256;2022-08-21T15:33:44;38.40;63.80
16064;DHT22;8136;53.172;8.256;2022-08-21T15:36:12;36.70;67.00
16064;DHT22;8136;53.172;8.256;2022-08-21T15:38:39;35.90;68.00
16064;DHT22;8136;53.172;8.256;2022-08-21T15:41:06;35.80;67.30
16064;DHT22;8136;53.172;8.256;2022-08-21T15:43:39;36.10;67.20
16064;DHT22;8136;53.172;8.256;2022-08-21T15:46:10;35.80;66.80
16064;DHT22;8136;53.172;8.256;2022-08-21T15:48:38;34.70;68.10
16064;DHT22;8136;53.172;8.256;2022-08-21T15:51:05;33.50;70.00
16064;DHT22;8136;53.172;8.256;2022-08-21T15:53:33;32.40;72.50
16064;DHT22;8136;53.172;8.256;2022-08-21T15:56:04;31.60;73.30
16064;DHT22;8136;53.172;8.256;2022-08-21T15:58:31;31.60;73.50
16064;DHT22;8136;53.172;8.256;2022-08-21T16:00:59;31.60;73.30
16064;DHT22;8136;53.172;8.256;2022-08-21T16:03:27;31.10;74.50
16064;DHT22;8136;53.172;8.256;2022-08-21T16:05:54;30.40;75.40
16064;DHT22;8136;53.172;8.256;2022-08-21T16:08:23;29.80;76.30
16064;DHT22;8136;53.172;8.256;2022-08-21T16:10:52;29.10;78.00
16064;DHT22;8136;53.172;8.256;2022-08-21T16:13:23;28.70;80.30
16064;DHT22;8136;53.172;8.256;2022-08-21T16:15:51;28.40;81.80
16064;DHT22;8136;53.172;8.256;2022-08-21T16:18:19;28.10;82.70
16064;DHT22;8136;53.172;8.256;2022-08-21T16:20:46;28.00;85.30
16064;DHT22;8136;53.172;8.256;2022-08-21T16:23:13;27.70;87.90
16064;DHT22;8136;53.172;8.256;2022-08-21T16:25:40;27.30;89.70